sensor_id;sensor_type;location;lat;lon;timestamp;temperature;humidity
24207;DHT22;12351;52.284;9.160;2024-03-23T00:55:35;8.20;99.90
24207;DHT22;12351;52.284;9.160;2024-03-23T00:58:23;8.20;99.90
24207;DHT22;12351;52.284;9.160;2024-03-23T01:01:12;8.20;99.90
24207;DHT22;12351;52.284;9.160;2024-03-23T01:04:02;8.20;99.90
24207;DHT22;12351;52.284;9.160;2024-03-23T01:06:52;8.20;99.90
24207;DHT22;12351;52.284;9.160;2024-03-23T01:09:42;8.20;99.90
24207;DHT22;12351;52.284;9.160;2024-03-23T01:12:31;8.20;99.90
24207;DHT22;12351;52.284;9.160;2024-03-23T01:15:23;8.20;99.90
24207;DHT22;12351;52.284;9.160;2024-03-23T01:18:11;8.20;99.90
24207;DHT22;12351;52.284;9.160;2024-03-23T01:21:00;8.20;99.90
24207;DHT22;12351;52.284;9.160;2024-03-23T01:23:51;8.20;99.90
24207;DHT22;12351;52.284;9.160;2024-03-23T01:26:40;8.20;99.90
24207;DHT22;12351;52.284;9.160;2024-03-23T01:29:29;8.20;99.90
24207;DHT22;12351;52.284;9.160;2024-03-23T01:32:18;8.20;99.90
24207;DHT22;12351;52.284;9.160;2024-03-23T01:35:11;8.20;99.90
24207;DHT22;12351;52.284;9.160;2024-03-23T01:37:57;8.20;99.90
24207;DHT22;12351;52.284;9.160;2024-03-23T01:40:50;8.20;99.90
24207;DHT22;12351;52.284;9.160;2024-03-23T01:43:41;8.10;99.90
24207;DHT22;12351;52.284;9.160;2024-03-23T01:46:28;8.10;99.90
24207;DHT22;12351;52.284;9.160;2024-03-23T01:49:19;8.10;99.90
24207;DHT22;12351;52.284;9.160;2024-03-23T01:52:09;8.10;99.90
24207;DHT22;12351;52.284;9.160;2024-03-23T01:54:59;8.10;99.90
24207;DHT22;12351;52.284;9.160;2024-03-23T01:57:51;8.10;99.90
24207;DHT22;12351;52.284;9.160;2024-03-23T02:00:39;8.10;99.90
24207;DHT22;12351;52.284;9.160;2024-03-23T02:03:31;8.10;99.90
24207;DHT22;12351;52.284;9.160;2024-03-23T02:06:21;8.00;99.90
24207;DHT22;12351;52.284;9.160;2024-03-23T02:09:09;8.00;99.90
24207;DHT22;12351;52.284;9.160;2024-03-23T02:12:01;8.00;99.90
24207;DHT22;12351;52.284;9.160;2024-03-23T02:14:52;8.00;99.90
24207;DHT22;12351;52.284;9.160;2024-03-23T02:17:42;8.00;99.90
24207;DHT22;12351;52.284;9.160;2024-03-23T02:20:33;8.00;99.90
24207;DHT22;12351;52.284;9.160;2024-03-23T02:23:22;8.00;99.90
24207;DHT22;12351;52.284;9.160;2024-03-23T02:26:10;8.00;99.90
24207;DHT22;12351;52.284;9.160;2024-03-23T02:29:01;7.90;99.90
24207;DHT22;12351;52.284;9.160;2024-03-23T02:31:50;7.90;99.90
24207;DHT22;12351;52.284;9.160;2024-03-23T02:34:39;7.90;99.90
24207;DHT22;12351;52.284;9.160;2024-03-23T02:37:28;7.90;99.90
24207;DHT22;12351;52.284;9.160;2024-03-23T02:40:20;7.90;99.90
24207;DHT22;12351;52.284;9.160;2024-03-23T02:43:10;7.90;99.90
24207;DHT22;12351;52.284;9.160;2024-03-23T02:46:00;7.90;99.90
24207;DHT22;12351;52.284;9.160;2024-03-23T02:48:49;7.80;99.90
24207;DHT22;12351;52.284;9.160;2024-03-23T02:51:39;7.80;99.90
24207;DHT22;12351;52.284;9.160;2024-03-23T02:54:29;7.80;99.90
24207;DHT22;12351;52.284;9.160;2024-03-23T02:57:20;7.80;99.90
24207;DHT22;12351;52.284;9.160;2024-03-23T03:00:09;7.80;99.90
24207;DHT22;12351;52.284;9.160;2024-03-23T03:02:58;7.80;99.90
24207;DHT22;12351;52.284;9.160;2024-03-23T03:05:54;7.80;99.90
24207;DHT22;12351;52.284;9.160;2024-03-23T03:08:39;7.80;99.90
24207;DHT22;12351;52.284;9.160;2024-03-23T03:11:27;7.70;99.90
24207;DHT22;12351;52.284;9.160;2024-03-23T03:14:18;7.70;99.90
24207;DHT22;12351;52.284;9.160;2024-03-23T03:17:08;7.70;99.90
24207;DHT22;12351;52.284;9.160;2024-03-23T03:19:58;7.70;99.90
24207;DHT22;12351;52.284;9.160;2024-03-23T03:22:47;7.70;99.90
24207;DHT22;12351;52.284;9.160;2024-03-23T03:25:38;7.70;99.90
24207;DHT22;12351;52.284;9.160;2024-03-23T03:28:28;7.70;99.90
24207;DHT22;12351;52.284;9.160;2024-03-23T03:31:20;7.60;99.90
24207;DHT22;12351;52.284;9.160;2024-03-23T03:34:10;7.60;99.90
24207;DHT22;12351;52.284;9.160;2024-03-23T03:37:02;7.60;99.90
24207;DHT22;12351;52.284;9.160;2024-03-23T03:39:51;7.60;99.90
24207;DHT22;12351;52.284;9.160;2024-03-23T03:42:41;7.60;99.90
24207;DHT22;12351;52.284;9.160;2024-03-23T03:45:31;7.50;99.90
24207;DHT22;12351;52.284;9.160;2024-03-23T03:48:22;7.50;99.90
24207;DHT22;12351;52.284;9.160;2024-03-23T03:51:15;7.50;99.90
24207;DHT22;12351;52.284;9.160;2024-03-23T03:54:03;7.50;99.90
24207;DHT22;12351;52.284;9.160;2024-03-23T03:56:53;7.50;99.90
24207;DHT22;12351;52.284;9.160;2024-03-23T03:59:40;7.50;99.90
24207;DHT22;12351;52.284;9.160;2024-03-23T04:02:31;7.50;99.90
24207;DHT22;12351;52.284;9.160;2024-03-23T04:05:20;7.50;99.90
24207;DHT22;12351;52.284;9.160;2024-03-23T04:08:08;7.50;99.90
24207;DHT22;12351;52.284;9.160;2024-03-23T04:10:55;7.50;99.90
24207;DHT22;12351;52.284;9.160;2024-03-23T04:13:43;7.50;99.90
24207;DHT22;12351;52.284;9.160;2024-03-23T04:16:34;7.50;99.90
24207;DHT22;12351;52.284;9.160;2024-03-23T04:19:21;7.40;99.90
24207;DHT22;12351;52.284;9.160;2024-03-23T04:22:08;7.50;99.90
24207;DHT22;12351;52.284;9.160;2024-03-23T04:24:56;7.40;99.90
24207;DHT22;12351;52.284;9.160;2024-03-23T04:27:43;7.40;99.90
24207;DHT22;12351;52.284;9.160;2024-03-23T04:30:30;7.40;99.90
24207;DHT22;12351;52.284;9.160;2024-03-23T04:33:17;7.40;99.90
24207;DHT22;12351;52.284;9.160;2024-03-23T04:36:05;7.40;99.90
24207;DHT22;12351;52.284;9.160;2024-03-23T04:38:53;7.40;99.90
24207;DHT22;12351;52.284;9.160;2024-03-23T04:41:40;7.40;99.90
24207;DHT22;12351;52.284;9.160;2024-03-23T04:44:27;7.40;99.90
24207;DHT22;12351;52.284;9.160;2024-03-23T04:47:14;7.40;99.90
24207;DHT22;12351;52.284;9.160;2024-03-23T04:50:03;7.40;99.90
24207;DHT22;12351;52.284;9.160;2024-03-23T04:52:51;7.30;99.90
24207;DHT22;12351;52.284;9.160;2024-03-23T04:55:38;7.30;99.90
24207;DHT22;12351;52.284;9.160;2024-03-23T04:58:25;7.30;99.90
24207;DHT22;12351;52.284;9.160;2024-03-23T05:01:12;7.30;99.90
24207;DHT22;12351;52.284;9.160;2024-03-23T05:03:59;7.30;99.90
24207;DHT22;12351;52.284;9.160;2024-03-23T05:06:46;7.30;99.90
24207;DHT22;12351;52.284;9.160;2024-03-23T05:09:33;7.30;99.90
24207;DHT22;12351;52.284;9.160;2024-03-23T05:12:21;7.30;99.90
24207;DHT22;12351;52.284;9.160;2024-03-23T05:15:07;7.30;99.90
24207;DHT22;12351;52.284;9.160;2024-03-23T05:17:55;7.30;99.90
24207;DHT22;12351;52.284;9.160;2024-03-23T05:20:42;7.30;99.90
24207;DHT22;12351;52.284;9.160;2024-03-23T05:23:29;7.30;99.90
24207;DHT22;12351;52.284;9.160;2024-03-23T05:26:17;7.30;99.90
24207;DHT22;12351;52.284;9.160;2024-03-23T05:29:04;7.30;99.90
24207;DHT22;12351;52.284;9.160;2024-03-23T05:31:53;7.30;99.90
24207;DHT22;12351;52.284;9.160;2024-03-23T05:34:41;7.30;99.90
24207;DHT22;12351;52.284;9.160;2024-03-23T05:37:29;7.30;99.90
24207;DHT22;12351;52.284;9.160;2024-03-23T05:40:17;7.30;99.90
24207;DHT22;12351;52.284;9.160;2024-03-23T05:43:04;7.30;99.90
24207;DHT22;12351;52.284;9.160;2024-03-23T05:48:41;7.30;99.90
24207;DHT22;12351;52.284;9.160;2024-03-23T05:51:28;7.30;99.90
24207;DHT22;12351;52.284;9.160;2024-03-23T05:54:16;7.30;99.90
24207;DHT22;12351;52.284;9.160;2024-03-23T05:57:03;7.30;99.90
24207;DHT22;12351;52.284;9.160;2024-03-23T05:59:52;7.30;99.90
24207;DHT22;12351;52.284;9.160;2024-03-23T06:02:39;7.30;99.90
24207;DHT22;12351;52.284;9.160;2024-03-23T06:05:26;7.30;99.90
24207;DHT22;12351;52.284;9.160;2024-03-23T06:08:13;7.30;99.90
24207;DHT22;12351;52.284;9.160;2024-03-23T06:11:01;7.30;99.90
24207;DHT22;12351;52.284;9.160;2024-03-23T06:13:48;7.30;99.90
24207;DHT22;12351;52.284;9.160;2024-03-23T06:16:35;7.30;99.90
24207;DHT22;12351;52.284;9.160;2024-03-23T06:19:22;7.30;99.90
24207;DHT22;12351;52.284;9.160;2024-03-23T06:22:09;7.30;99.90
24207;DHT22;12351;52.284;9.160;2024-03-23T06:24:56;7.30;99.90
24207;DHT22;12351;52.284;9.160;2024-03-23T06:27:43;7.30;99.90
24207;DHT22;12351;52.284;9.160;2024-03-23T06:30:30;7.30;99.90
24207;DHT22;12351;52.284;9.160;2024-03-23T06:33:17;7.30;99.90
24207;DHT22;12351;52.284;9.160;2024-03-23T06:36:05;7.30;99.90
24207;DHT22;12351;52.284;9.160;2024-03-23T06:38:52;7.30;99.90
24207;DHT22;12351;52.284;9.160;2024-03-23T06:41:39;7.30;99.90
24207;DHT22;12351;52.284;9.160;2024-03-23T06:44:27;7.30;99.90
24207;DHT22;12351;52.284;9.160;2024-03-23T06:47:14;7.30;99.90
24207;DHT22;12351;52.284;9.160;2024-03-23T06:50:02;7.30;99.90
24207;DHT22;12351;52.284;9.160;2024-03-23T06:52:50;7.30;99.90
24207;DHT22;12351;52.284;9.160;2024-03-23T06:55:37;7.30;99.90
24207;DHT22;12351;52.284;9.160;2024-03-23T06:58:25;7.30;99.90
24207;DHT22;12351;52.284;9.160;2024-03-23T07:01:12;7.30;99.90
24207;DHT22;12351;52.284;9.160;2024-03-23T07:04:01;7.40;99.90
24207;DHT22;12351;52.284;9.160;2024-03-23T07:06:50;7.40;99.90
24207;DHT22;12351;52.284;9.160;2024-03-23T07:09:41;7.40;99.90
24207;DHT22;12351;52.284;9.160;2024-03-23T07:12:30;7.40;99.90
24207;DHT22;12351;52.284;9.160;2024-03-23T07:15:18;7.40;99.90
24207;DHT22;12351;52.284;9.160;2024-03-23T07:18:08;7.40;99.90
24207;DHT22;12351;52.284;9.160;2024-03-23T07:20:56;7.40;99.90
24207;DHT22;12351;52.284;9.160;2024-03-23T07:23:47;7.40;99.90
24207;DHT22;12351;52.284;9.160;2024-03-23T07:26:37;7.50;99.90
24207;DHT22;12351;52.284;9.160;2024-03-23T07:29:27;7.40;99.90
24207;DHT22;12351;52.284;9.160;2024-03-23T07:32:16;7.50;99.90
24207;DHT22;12351;52.284;9.160;2024-03-23T07:35:04;7.50;99.90
24207;DHT22;12351;52.284;9.160;2024-03-23T07:37:54;7.50;99.90
24207;DHT22;12351;52.284;9.160;2024-03-23T07:40:45;7.50;99.90
24207;DHT22;12351;52.284;9.160;2024-03-23T07:43:35;7.50;99.90
24207;DHT22;12351;52.284;9.160;2024-03-23T07:46:24;7.50;99.90
24207;DHT22;12351;52.284;9.160;2024-03-23T07:49:15;7.50;99.90
24207;DHT22;12351;52.284;9.160;2024-03-23T07:52:08;7.50;99.90
24207;DHT22;12351;52.284;9.160;2024-03-23T07:54:56;7.50;99.90
24207;DHT22;12351;52.284;9.160;2024-03-23T07:57:46;7.50;99.90
24207;DHT22;12351;52.284;9.160;2024-03-23T08:00:36;7.60;99.90
24207;DHT22;12351;52.284;9.160;2024-03-23T08:03:27;7.60;99.90
24207;DHT22;12351;52.284;9.160;2024-03-23T08:06:19;7.60;99.90
24207;DHT22;12351;52.284;9.160;2024-03-23T08:09:09;7.60;99.90
24207;DHT22;12351;52.284;9.160;2024-03-23T08:11:59;7.60;99.90
24207;DHT22;12351;52.284;9.160;2024-03-23T08:14:47;7.70;99.90
24207;DHT22;12351;52.284;9.160;2024-03-23T08:17:36;7.70;99.90
24207;DHT22;12351;52.284;9.160;2024-03-23T08:20:24;7.70;99.90
24207;DHT22;12351;52.284;9.160;2024-03-23T08:23:14;7.70;99.90
24207;DHT22;12351;52.284;9.160;2024-03-23T08:26:09;7.80;99.90
24207;DHT22;12351;52.284;9.160;2024-03-23T08:29:03;7.90;99.90
24207;DHT22;12351;52.284;9.160;2024-03-23T08:31:51;7.90;99.90
24207;DHT22;12351;52.284;9.160;2024-03-23T08:34:41;7.90;99.90
24207;DHT22;12351;52.284;9.160;2024-03-23T08:37:31;8.00;99.90
24207;DHT22;12351;52.284;9.160;2024-03-23T08:40:20;8.00;99.90
24207;DHT22;12351;52.284;9.160;2024-03-23T08:43:09;8.00;99.90
24207;DHT22;12351;52.284;9.160;2024-03-23T08:48:52;7.90;99.90
24207;DHT22;12351;52.284;9.160;2024-03-23T08:51:41;7.90;99.90
24207;DHT22;12351;52.284;9.160;2024-03-23T08:54:32;7.90;99.90
24207;DHT22;12351;52.284;9.160;2024-03-23T08:57:21;7.90;99.90
24207;DHT22;12351;52.284;9.160;2024-03-23T09:00:12;7.90;99.90
24207;DHT22;12351;52.284;9.160;2024-03-23T09:02:59;8.00;99.90
24207;DHT22;12351;52.284;9.160;2024-03-23T09:05:51;8.10;99.90
24207;DHT22;12351;52.284;9.160;2024-03-23T09:08:41;8.10;99.90
24207;DHT22;12351;52.284;9.160;2024-03-23T09:11:32;8.00;99.90
24207;DHT22;12351;52.284;9.160;2024-03-23T09:14:23;8.00;99.90
24207;DHT22;12351;52.284;9.160;2024-03-23T09:17:14;8.10;99.90
24207;DHT22;12351;52.284;9.160;2024-03-23T09:20:06;8.10;99.90
24207;DHT22;12351;52.284;9.160;2024-03-23T09:25:50;8.10;99.90
24207;DHT22;12351;52.284;9.160;2024-03-23T09:28:39;8.10;99.90
24207;DHT22;12351;52.284;9.160;2024-03-23T09:31:29;8.20;99.90
24207;DHT22;12351;52.284;9.160;2024-03-23T09:34:19;8.20;99.90
24207;DHT22;12351;52.284;9.160;2024-03-23T09:37:08;8.20;99.90
24207;DHT22;12351;52.284;9.160;2024-03-23T09:39:56;8.30;99.90
24207;DHT22;12351;52.284;9.160;2024-03-23T09:45:40;8.50;99.90
24207;DHT22;12351;52.284;9.160;2024-03-23T09:48:28;8.50;99.90
24207;DHT22;12351;52.284;9.160;2024-03-23T09:51:17;8.60;99.90
24207;DHT22;12351;52.284;9.160;2024-03-23T09:54:08;8.70;99.90
24207;DHT22;12351;52.284;9.160;2024-03-23T09:56:56;8.80;99.90
24207;DHT22;12351;52.284;9.160;2024-03-23T09:59:48;8.90;99.90
24207;DHT22;12351;52.284;9.160;2024-03-23T10:02:38;8.80;99.90
24207;DHT22;12351;52.284;9.160;2024-03-23T10:05:27;8.70;99.90
24207;DHT22;12351;52.284;9.160;2024-03-23T10:08:20;8.70;99.90
24207;DHT22;12351;52.284;9.160;2024-03-23T10:14:01;8.90;99.90
24207;DHT22;12351;52.284;9.160;2024-03-23T10:16:52;9.00;99.90
24207;DHT22;12351;52.284;9.160;2024-03-23T10:19:42;9.10;99.90
24207;DHT22;12351;52.284;9.160;2024-03-23T10:22:36;9.20;99.90
24207;DHT22;12351;52.284;9.160;2024-03-23T10:25:26;9.30;99.90
24207;DHT22;12351;52.284;9.160;2024-03-23T10:28:19;9.30;99.90
24207;DHT22;12351;52.284;9.160;2024-03-23T10:31:11;9.40;99.90
24207;DHT22;12351;52.284;9.160;2024-03-23T10:34:00;9.60;99.90
24207;DHT22;12351;52.284;9.160;2024-03-23T10:36:49;9.60;99.90
24207;DHT22;12351;52.284;9.160;2024-03-23T10:39:39;9.60;99.90
24207;DHT22;12351;52.284;9.160;2024-03-23T10:42:30;9.40;99.90
24207;DHT22;12351;52.284;9.160;2024-03-23T10:45:20;9.40;99.90
24207;DHT22;12351;52.284;9.160;2024-03-23T10:48:10;9.40;99.90
24207;DHT22;12351;52.284;9.160;2024-03-23T10:51:00;9.50;99.90
24207;DHT22;12351;52.284;9.160;2024-03-23T10:53:50;9.70;99.90
24207;DHT22;12351;52.284;9.160;2024-03-23T10:56:38;9.80;99.90
24207;DHT22;12351;52.284;9.160;2024-03-23T10:59:31;9.80;99.90
24207;DHT22;12351;52.284;9.160;2024-03-23T11:02:22;9.90;99.90
24207;DHT22;12351;52.284;9.160;2024-03-23T11:08:03;10.30;99.90
24207;DHT22;12351;52.284;9.160;2024-03-23T11:10:54;10.40;99.90
24207;DHT22;12351;52.284;9.160;2024-03-23T11:13:47;10.40;99.90
24207;DHT22;12351;52.284;9.160;2024-03-23T11:16:34;10.40;99.90
24207;DHT22;12351;52.284;9.160;2024-03-23T11:22:17;10.40;99.90
24207;DHT22;12351;52.284;9.160;2024-03-23T11:28:08;10.20;99.90
24207;DHT22;12351;52.284;9.160;2024-03-23T11:30:49;10.00;99.90
24207;DHT22;12351;52.284;9.160;2024-03-23T11:33:39;9.70;99.90
24207;DHT22;12351;52.284;9.160;2024-03-23T11:36:32;9.70;99.90
24207;DHT22;12351;52.284;9.160;2024-03-23T11:39:22;9.70;99.90
24207;DHT22;12351;52.284;9.160;2024-03-23T11:42:13;9.70;99.90
24207;DHT22;12351;52.284;9.160;2024-03-23T11:45:07;9.70;99.90
24207;DHT22;12351;52.284;9.160;2024-03-23T11:50:46;9.60;99.90
24207;DHT22;12351;52.284;9.160;2024-03-23T11:53:37;9.70;99.90
24207;DHT22;12351;52.284;9.160;2024-03-23T11:56:28;9.80;99.90
24207;DHT22;12351;52.284;9.160;2024-03-23T11:59:29;9.80;99.90
24207;DHT22;12351;52.284;9.160;2024-03-23T12:02:11;9.80;99.90
24207;DHT22;12351;52.284;9.160;2024-03-23T12:05:13;9.60;99.90
24207;DHT22;12351;52.284;9.160;2024-03-23T12:07:50;9.50;99.90
24207;DHT22;12351;52.284;9.160;2024-03-23T12:10:39;9.30;99.90
24207;DHT22;12351;52.284;9.160;2024-03-23T12:13:26;9.10;99.90
24207;DHT22;12351;52.284;9.160;2024-03-23T12:16:19;9.10;99.90
24207;DHT22;12351;52.284;9.160;2024-03-23T12:19:09;9.00;99.90
24207;DHT22;12351;52.284;9.160;2024-03-23T12:21:57;9.00;99.90
24207;DHT22;12351;52.284;9.160;2024-03-23T12:24:47;9.00;99.90
24207;DHT22;12351;52.284;9.160;2024-03-23T12:27:36;9.00;99.90
24207;DHT22;12351;52.284;9.160;2024-03-23T12:30:24;9.00;99.90
24207;DHT22;12351;52.284;9.160;2024-03-23T12:33:16;9.00;99.90
24207;DHT22;12351;52.284;9.160;2024-03-23T12:36:06;8.90;99.90
24207;DHT22;12351;52.284;9.160;2024-03-23T12:38:53;9.00;99.90
24207;DHT22;12351;52.284;9.160;2024-03-23T12:41:44;9.00;99.90
24207;DHT22;12351;52.284;9.160;2024-03-23T12:44:34;9.00;99.90
24207;DHT22;12351;52.284;9.160;2024-03-23T12:47:22;9.00;99.90
24207;DHT22;12351;52.284;9.160;2024-03-23T12:50:13;9.10;99.90
24207;DHT22;12351;52.284;9.160;2024-03-23T12:53:04;9.10;99.90
24207;DHT22;12351;52.284;9.160;2024-03-23T12:55:56;9.10;99.90
24207;DHT22;12351;52.284;9.160;2024-03-23T12:58:47;9.20;99.90
24207;DHT22;12351;52.284;9.160;2024-03-23T13:01:37;9.20;99.90
24207;DHT22;12351;52.284;9.160;2024-03-23T13:04:31;9.20;99.90
24207;DHT22;12351;52.284;9.160;2024-03-23T13:07:21;9.20;99.90
24207;DHT22;12351;52.284;9.160;2024-03-23T13:10:10;9.20;99.90
24207;DHT22;12351;52.284;9.160;2024-03-23T13:13:02;9.30;99.90
24207;DHT22;12351;52.284;9.160;2024-03-23T13:15:53;9.30;99.90
24207;DHT22;12351;52.284;9.160;2024-03-23T13:18:44;9.30;99.90
24207;DHT22;12351;52.284;9.160;2024-03-23T13:21:34;9.30;99.90
24207;DHT22;12351;52.284;9.160;2024-03-23T13:24:25;9.20;99.90
24207;DHT22;12351;52.284;9.160;2024-03-23T13:27:16;9.30;99.90
24207;DHT22;12351;52.284;9.160;2024-03-23T13:30:06;9.30;99.90
24207;DHT22;12351;52.284;9.160;2024-03-23T13:32:59;9.40;99.90
24207;DHT22;12351;52.284;9.160;2024-03-23T13:35:49;9.40;99.90
24207;DHT22;12351;52.284;9.160;2024-03-23T13:38:39;9.50;99.90
24207;DHT22;12351;52.284;9.160;2024-03-23T13:41:31;9.50;99.90
24207;DHT22;12351;52.284;9.160;2024-03-23T13:44:20;9.50;99.90
24207;DHT22;12351;52.284;9.160;2024-03-23T13:47:12;9.50;99.90
24207;DHT22;12351;52.284;9.160;2024-03-23T13:50:01;9.40;99.90
24207;DHT22;12351;52.284;9.160;2024-03-23T13:52:53;9.20;99.90
24207;DHT22;12351;52.284;9.160;2024-03-23T13:58:31;8.90;99.90
24207;DHT22;12351;52.284;9.160;2024-03-23T14:01:21;8.90;99.90
24207;DHT22;12351;52.284;9.160;2024-03-23T14:04:11;8.80;99.90
24207;DHT22;12351;52.284;9.160;2024-03-23T14:07:05;8.70;99.90
24207;DHT22;12351;52.284;9.160;2024-03-23T14:09:55;8.60;99.90
24207;DHT22;12351;52.284;9.160;2024-03-23T14:12:46;8.50;99.90
24207;DHT22;12351;52.284;9.160;2024-03-23T14:15:38;8.50;99.90
24207;DHT22;12351;52.284;9.160;2024-03-23T14:18:26;8.40;99.90
24207;DHT22;12351;52.284;9.160;2024-03-23T14:21:17;8.40;99.90
24207;DHT22;12351;52.284;9.160;2024-03-23T14:24:08;8.40;99.90
24207;DHT22;12351;52.284;9.160;2024-03-23T14:26:59;8.40;99.90
24207;DHT22;12351;52.284;9.160;2024-03-23T14:29:50;8.40;99.90
24207;DHT22;12351;52.284;9.160;2024-03-23T14:32:38;8.60;99.90
24207;DHT22;12351;52.284;9.160;2024-03-23T14:35:29;8.80;99.90
24207;DHT22;12351;52.284;9.160;2024-03-23T14:38:19;8.90;99.90
24207;DHT22;12351;52.284;9.160;2024-03-23T14:41:12;8.90;99.90
24207;DHT22;12351;52.284;9.160;2024-03-23T14:44:01;9.00;99.90
24207;DHT22;12351;52.284;9.160;2024-03-23T14:46:52;9.00;99.90
24207;DHT22;12351;52.284;9.160;2024-03-23T14:49:44;9.10;99.90
24207;DHT22;12351;52.284;9.160;2024-03-23T14:52:35;9.20;99.90
24207;DHT22;12351;52.284;9.160;2024-03-23T14:55:25;9.20;99.90
24207;DHT22;12351;52.284;9.160;2024-03-23T14:58:15;9.30;99.90
24207;DHT22;12351;52.284;9.160;2024-03-23T15:01:11;9.30;99.90
24207;DHT22;12351;52.284;9.160;2024-03-23T15:04:01;9.40;99.90
24207;DHT22;12351;52.284;9.160;2024-03-23T15:06:49;9.30;99.90
24207;DHT22;12351;52.284;9.160;2024-03-23T15:09:38;9.30;99.90
24207;DHT22;12351;52.284;9.160;2024-03-23T15:12:27;9.30;99.90
24207;DHT22;12351;52.284;9.160;2024-03-23T15:15:17;9.20;99.90
24207;DHT22;12351;52.284;9.160;2024-03-23T15:18:07;8.90;99.90
24207;DHT22;12351;52.284;9.160;2024-03-23T15:21:00;8.70;99.90
24207;DHT22;12351;52.284;9.160;2024-03-23T15:23:49;8.60;99.90
24207;DHT22;12351;52.284;9.160;2024-03-23T15:26:38;8.50;99.90
24207;DHT22;12351;52.284;9.160;2024-03-23T15:29:29;8.50;99.90
24207;DHT22;12351;52.284;9.160;2024-03-23T15:32:20;8.40;99.90
24207;DHT22;12351;52.284;9.160;2024-03-23T15:35:08;8.40;99.90
24207;DHT22;12351;52.284;9.160;2024-03-23T15:38:00;8.40;99.90
24207;DHT22;12351;52.284;9.160;2024-03-23T15:40:51;8.40;99.90
24207;DHT22;12351;52.284;9.160;2024-03-23T15:43:41;8.50;99.90
24207;DHT22;12351;52.284;9.160;2024-03-23T15:46:32;8.40;99.90
24207;DHT22;12351;52.284;9.160;2024-03-23T15:49:24;8.40;99.90
24207;DHT22;12351;52.284;9.160;2024-03-23T15:52:13;8.30;99.90
24207;DHT22;12351;52.284;9.160;2024-03-23T15:55:03;8.30;99.90
24207;DHT22;12351;52.284;9.160;2024-03-23T15:57:55;8.30;99.90
24207;DHT22;12351;52.284;9.160;2024-03-23T16:00:44;8.30;99.90
24207;DHT22;12351;52.284;9.160;2024-03-23T16:03:35;8.30;99.90
24207;DHT22;12351;52.284;9.160;2024-03-23T16:06:25;8.30;99.90
24207;DHT22;12351;52.284;9.160;2024-03-23T16:09:13;8.30;99.90
24207;DHT22;12351;52.284;9.160;2024-03-23T16:12:03;8.20;99.90
24207;DHT22;12351;52.284;9.160;2024-03-23T16:14:55;8.20;99.90
24207;DHT22;12351;52.284;9.160;2024-03-23T16:17:45;8.10;99.90
24207;DHT22;12351;52.284;9.160;2024-03-23T16:20:37;8.10;99.90
24207;DHT22;12351;52.284;9.160;2024-03-23T16:23:28;8.10;99.90
24207;DHT22;12351;52.284;9.160;2024-03-23T16:26:18;8.10;99.90
24207;DHT22;12351;52.284;9.160;2024-03-23T16:29:08;8.10;99.90
24207;DHT22;12351;52.284;9.160;2024-03-23T16:31:57;8.10;99.90
24207;DHT22;12351;52.284;9.160;2024-03-23T16:34:49;8.10;99.90
24207;DHT22;12351;52.284;9.160;2024-03-23T16:37:40;8.10;99.90
24207;DHT22;12351;52.284;9.160;2024-03-23T16:40:27;8.10;99.90
24207;DHT22;12351;52.284;9.160;2024-03-23T16:43:20;8.10;99.90
24207;DHT22;12351;52.284;9.160;2024-03-23T16:46:12;8.10;99.90
24207;DHT22;12351;52.284;9.160;2024-03-23T16:49:04;8.10;99.90
24207;DHT22;12351;52.284;9.160;2024-03-23T16:51:54;8.00;99.90
24207;DHT22;12351;52.284;9.160;2024-03-23T16:54:45;8.00;99.90
24207;DHT22;12351;52.284;9.160;2024-03-23T16:57:37;7.90;99.90
24207;DHT22;12351;52.284;9.160;2024-03-23T17:00:26;7.90;99.90
24207;DHT22;12351;52.284;9.160;2024-03-23T17:03:19;7.80;99.90
24207;DHT22;12351;52.284;9.160;2024-03-23T17:06:09;7.80;99.90
24207;DHT22;12351;52.284;9.160;2024-03-23T17:09:01;7.80;99.90
24207;DHT22;12351;52.284;9.160;2024-03-23T17:11:52;7.70;99.90
24207;DHT22;12351;52.284;9.160;2024-03-23T17:14:42;7.80;99.90
24207;DHT22;12351;52.284;9.160;2024-03-23T17:17:29;7.70;99.90
24207;DHT22;12351;52.284;9.160;2024-03-23T17:20:18;7.70;99.90
24207;DHT22;12351;52.284;9.160;2024-03-23T17:23:10;7.70;99.90
24207;DHT22;12351;52.284;9.160;2024-03-23T17:26:02;7.60;99.90
24207;DHT22;12351;52.284;9.160;2024-03-23T17:28:53;7.60;99.90
24207;DHT22;12351;52.284;9.160;2024-03-23T17:31:45;7.60;99.90
24207;DHT22;12351;52.284;9.160;2024-03-23T17:34:34;7.40;99.90
24207;DHT22;12351;52.284;9.160;2024-03-23T17:37:24;7.30;99.90
24207;DHT22;12351;52.284;9.160;2024-03-23T17:40:11;7.20;99.90
24207;DHT22;12351;52.284;9.160;2024-03-23T17:42:58;7.20;99.90
24207;DHT22;12351;52.284;9.160;2024-03-23T17:45:45;7.10;99.90
24207;DHT22;12351;52.284;9.160;2024-03-23T17:48:33;7.00;99.90
24207;DHT22;12351;52.284;9.160;2024-03-23T17:51:20;7.00;99.90
24207;DHT22;12351;52.284;9.160;2024-03-23T17:54:07;6.90;99.90
24207;DHT22;12351;52.284;9.160;2024-03-23T17:56:54;6.90;99.90
24207;DHT22;12351;52.284;9.160;2024-03-23T17:59:41;6.80;99.90
24207;DHT22;12351;52.284;9.160;2024-03-23T18:02:28;6.80;99.90
24207;DHT22;12351;52.284;9.160;2024-03-23T18:05:15;6.70;99.90
24207;DHT22;12351;52.284;9.160;2024-03-23T18:08:04;6.70;99.90
24207;DHT22;12351;52.284;9.160;2024-03-23T18:10:51;6.70;99.90
24207;DHT22;12351;52.284;9.160;2024-03-23T18:13:39;6.60;99.90
24207;DHT22;12351;52.284;9.160;2024-03-23T18:16:27;6.60;99.90
24207;DHT22;12351;52.284;9.160;2024-03-23T18:19:15;6.60;99.90
24207;DHT22;12351;52.284;9.160;2024-03-23T18:22:02;6.60;99.90
24207;DHT22;12351;52.284;9.160;2024-03-23T18:24:49;6.50;99.90
24207;DHT22;12351;52.284;9.160;2024-03-23T18:27:37;6.50;99.90
24207;DHT22;12351;52.284;9.160;2024-03-23T18:30:24;6.50;99.90
24207;DHT22;12351;52.284;9.160;2024-03-23T18:33:11;6.50;99.90
24207;DHT22;12351;52.284;9.160;2024-03-23T18:35:58;6.50;99.90
24207;DHT22;12351;52.284;9.160;2024-03-23T18:38:46;6.40;99.90
24207;DHT22;12351;52.284;9.160;2024-03-23T18:41:33;6.40;99.90
24207;DHT22;12351;52.284;9.160;2024-03-23T18:44:20;6.40;99.90
24207;DHT22;12351;52.284;9.160;2024-03-23T18:47:07;6.40;99.90
24207;DHT22;12351;52.284;9.160;2024-03-23T18:49:54;6.30;99.90
24207;DHT22;12351;52.284;9.160;2024-03-23T18:52:41;6.40;99.90
24207;DHT22;12351;52.284;9.160;2024-03-23T18:55:28;6.30;99.90
24207;DHT22;12351;52.284;9.160;2024-03-23T18:58:15;6.30;99.90
24207;DHT22;12351;52.284;9.160;2024-03-23T19:01:03;6.30;99.90
24207;DHT22;12351;52.284;9.160;2024-03-23T19:03:51;6.20;99.90
24207;DHT22;12351;52.284;9.160;2024-03-23T19:06:38;6.20;99.90
24207;DHT22;12351;52.284;9.160;2024-03-23T19:09:25;6.20;99.90
24207;DHT22;12351;52.284;9.160;2024-03-23T19:12:13;6.20;99.90
24207;DHT22;12351;52.284;9.160;2024-03-23T19:15:00;6.20;99.90
24207;DHT22;12351;52.284;9.160;2024-03-23T19:17:48;6.10;99.90
24207;DHT22;12351;52.284;9.160;2024-03-23T19:20:35;6.10;99.90
24207;DHT22;12351;52.284;9.160;2024-03-23T19:23:23;6.10;99.90
24207;DHT22;12351;52.284;9.160;2024-03-23T19:26:11;6.10;99.90
24207;DHT22;12351;52.284;9.160;2024-03-23T19:28:59;6.10;99.90